Time;durP1;ratioP1;P1;durP2;ratioP2;P2;SDS_P1;SDS_P2;PMS_P1;PMS_P2;Temp;Humidity;BMP_temperature;BMP_pressure;BME280_temperature;BME280_humidity;BME280_pressure;Samples;Min_cycle;Max_cycle;Signal;HPM_P1;HPM_P2
2023/02/03 00:00:00;;;;;;;1.0;1.0;;;;;;;8.2;100.0;102260;;;;
2023/02/03 00:01:00;;;;;;;1.0;1.0;;;;;;;8.1;100.0;102260;;;;
2023/02/03 00:02:00;;;;;;;1.0;1.0;;;;;;;8.1;100.0;102260;;;;
2023/02/03 00:03:00;;;;;;;1.0;1.0;;;;;;;8.1;100.0;102260;;;;
2023/02/03 00:04:00;;;;;;;1.1;1.1;;;;;;;8.1;100.0;102260;;;;
2023/02/03 00:05:00;;;;;;;1.1;1.1;;;;;;;8.1;100.0;102270;;;;
2023/02/03 00:06:02;;;;;;;1.1;1.1;;;;;;;8.1;100.0;102270;;;;
2023/02/03 00:07:00;;;;;;;1.1;1.1;;;;;;;8.1;100.0;102260;;;;
2023/02/03 00:08:01;;;;;;;1.1;1.1;;;;;;;8.1;100.0;102260;;;;
2023/02/03 00:09:00;;;;;;;1.1;1.1;;;;;;;8.2;100.0;102250;;;;
2023/02/03 00:10:00;;;;;;;1.1;1.1;;;;;;;8.2;100.0;102250;;;;
2023/02/03 00:11:00;;;;;;;1.1;1.1;;;;;;;8.1;100.0;102260;;;;
2023/02/03 00:12:00;;;;;;;1.1;1.1;;;;;;;8.1;100.0;102260;;;;
2023/02/03 00:13:00;;;;;;;1.1;1.1;;;;;;;8.1;100.0;102250;;;;
2023/02/03 00:14:00;;;;;;;1.1;1.1;;;;;;;8.1;100.0;102250;;;;
2023/02/03 00:15:00;;;;;;;1.1;1.1;;;;;;;8.1;100.0;102250;;;;
2023/02/03 00:16:00;;;;;;;1.1;1.1;;;;;;;8.1;100.0;102250;;;;
2023/02/03 00:17:00;;;;;;;1.1;1.1;;;;;;;8.1;100.0;102250;;;;
2023/02/03 00:18:00;;;;;;;1.1;1.1;;;;;;;8.1;100.0;102250;;;;
2023/02/03 00:19:00;;;;;;;1.1;1.1;;;;;;;8.1;100.0;102260;;;;
2023/02/03 00:20:00;;;;;;;1.1;1.1;;;;;;;8.1;100.0;102260;;;;
2023/02/03 00:21:00;;;;;;;1.1;1.1;;;;;;;8.2;100.0;102270;;;;
2023/02/03 00:22:00;;;;;;;1.1;1.1;;;;;;;8.2;100.0;102270;;;;
2023/02/03 00:23:04;;;;;;;1.1;1.1;;;;;;;8.1;100.0;102280;;;;
2023/02/03 00:24:00;;;;;;;1.3;1.3;;;;;;;8.1;100.0;102280;;;;
2023/02/03 00:25:00;;;;;;;1.3;1.3;;;;;;;8.1;100.0;102280;;;;
2023/02/03 00:26:09;;;;;;;1.3;1.3;;;;;;;8.1;100.0;102280;;;;
2023/02/03 00:27:00;;;;;;;1.3;1.3;;;;;;;8.1;100.0;102290;;;;
2023/02/03 00:28:01;;;;;;;1.3;1.3;;;;;;;8.1;100.0;102290;;;;
2023/02/03 00:29:00;;;;;;;1.3;1.3;;;;;;;8.2;100.0;102290;;;;
2023/02/03 00:30:00;;;;;;;1.3;1.3;;;;;;;8.2;100.0;102290;;;;
2023/02/03 00:31:00;;;;;;;1.3;1.3;;;;;;;8.1;100.0;102300;;;;
2023/02/03 00:32:00;;;;;;;1.3;1.3;;;;;;;8.1;100.0;102300;;;;
2023/02/03 00:33:01;;;;;;;1.3;1.3;;;;;;;8.1;100.0;102290;;;;
2023/02/03 00:34:00;;;;;;;1.3;1.3;;;;;;;8.1;100.0;102290;;;;
2023/02/03 00:35:00;;;;;;;1.3;1.3;;;;;;;8.2;100.0;102290;;;;
2023/02/03 00:36:04;;;;;;;1.3;1.3;;;;;;;8.2;100.0;102290;;;;
2023/02/03 00:37:00;;;;;;;1.3;1.3;;;;;;;8.2;100.0;102290;;;;
2023/02/03 00:38:00;;;;;;;1.3;1.3;;;;;;;8.2;100.0;102290;;;;
2023/02/03 00:39:01;;;;;;;1.3;1.3;;;;;;;8.2;100.0;102290;;;;
2023/02/03 00:40:00;;;;;;;1.3;1.3;;;;;;;8.2;100.0;102290;;;;
2023/02/03 00:41:00;;;;;;;1.3;1.3;;;;;;;8.1;100.0;102290;;;;
2023/02/03 00:42:00;;;;;;;1.3;1.3;;;;;;;8.1;100.0;102290;;;;
2023/02/03 00:43:00;;;;;;;1.3;1.3;;;;;;;8.1;100.0;102290;;;;
2023/02/03 00:44:00;;;;;;;1.2;1.2;;;;;;;8.1;100.0;102290;;;;
2023/02/03 00:45:00;;;;;;;1.2;1.2;;;;;;;8.1;100.0;102300;;;;
2023/02/03 00:46:01;;;;;;;1.2;1.2;;;;;;;8.1;100.0;102300;;;;
2023/02/03 00:47:00;;;;;;;1.2;1.2;;;;;;;8.1;100.0;102290;;;;
2023/02/03 00:48:00;;;;;;;1.2;1.2;;;;;;;8.1;100.0;102290;;;;
2023/02/03 00:49:00;;;;;;;1.2;1.2;;;;;;;8.1;100.0;102300;;;;
2023/02/03 00:50:00;;;;;;;1.2;1.2;;;;;;;8.1;100.0;102300;;;;
2023/02/03 00:51:00;;;;;;;1.2;1.2;;;;;;;8.1;100.0;102290;;;;
2023/02/03 00:52:00;;;;;;;1.2;1.2;;;;;;;8.1;100.0;102290;;;;
2023/02/03 00:53:00;;;;;;;1.2;1.2;;;;;;;8.1;100.0;102290;;;;
2023/02/03 00:54:00;;;;;;;1.2;1.2;;;;;;;8.1;100.0;102290;;;;
2023/02/03 00:55:00;;;;;;;1.2;1.2;;;;;;;8.1;100.0;102290;;;;
2023/02/03 00:56:00;;;;;;;1.2;1.2;;;;;;;8.1;100.0;102290;;;;
2023/02/03 00:57:00;;;;;;;1.2;1.2;;;;;;;8.1;100.0;102290;;;;
2023/02/03 00:58:00;;;;;;;1.2;1.2;;;;;;;8.1;100.0;102290;;;;
2023/02/03 00:59:00;;;;;;;1.2;1.2;;;;;;;8.0;100.0;102300;;;;
2023/02/03 01:00:00;;;;;;;1.2;1.2;;;;;;;8.0;100.0;102300;;;;
2023/02/03 01:01:00;;;;;;;1.2;1.2;;;;;;;8.1;100.0;102300;;;;
2023/02/03 01:02:00;;;;;;;1.2;1.2;;;;;;;8.1;100.0;102300;;;;
2023/02/03 01:03:00;;;;;;;1.2;1.2;;;;;;;8.1;100.0;102300;;;;
2023/02/03 01:04:00;;;;;;;1.3;1.3;;;;;;;8.1;100.0;102300;;;;
2023/02/03 01:05:00;;;;;;;1.3;1.3;;;;;;;8.1;100.0;102300;;;;
2023/02/03 01:06:10;;;;;;;1.3;1.3;;;;;;;8.1;100.0;102300;;;;
2023/02/03 01:07:00;;;;;;;1.3;1.3;;;;;;;8.2;100.0;102310;;;;
2023/02/03 01:08:01;;;;;;;1.3;1.3;;;;;;;8.2;100.0;102310;;;;
2023/02/03 01:09:01;;;;;;;1.3;1.3;;;;;;;8.1;100.0;102310;;;;
2023/02/03 01:10:00;;;;;;;1.3;1.3;;;;;;;8.1;100.0;102310;;;;
2023/02/03 01:11:08;;;;;;;1.3;1.3;;;;;;;8.2;100.0;102310;;;;
2023/02/03 01:12:00;;;;;;;1.3;1.3;;;;;;;8.2;100.0;102310;;;;
2023/02/03 01:13:00;;;;;;;1.3;1.3;;;;;;;8.1;100.0;102310;;;;
2023/02/03 01:14:00;;;;;;;1.3;1.3;;;;;;;8.1;100.0;102310;;;;
2023/02/03 01:15:00;;;;;;;1.3;1.3;;;;;;;8.2;100.0;102310;;;;
2023/02/03 01:16:00;;;;;;;1.3;1.3;;;;;;;8.2;100.0;102310;;;;
2023/02/03 01:17:00;;;;;;;1.3;1.3;;;;;;;8.2;100.0;102320;;;;
2023/02/03 01:18:00;;;;;;;1.3;1.3;;;;;;;8.2;100.0;102320;;;;
2023/02/03 01:19:00;;;;;;;1.3;1.3;;;;;;;8.2;100.0;102310;;;;
2023/02/03 01:20:00;;;;;;;1.3;1.3;;;;;;;8.2;100.0;102310;;;;
2023/02/03 01:21:09;;;;;;;1.3;1.3;;;;;;;8.1;100.0;102300;;;;
2023/02/03 01:22:00;;;;;;;1.3;1.3;;;;;;;8.1;100.0;102300;;;;
2023/02/03 01:23:00;;;;;;;1.3;1.3;;;;;;;8.2;100.0;102300;;;;
2023/02/03 01:24:01;;;;;;;1.2;1.2;;;;;;;8.2;100.0;102300;;;;
2023/02/03 01:25:00;;;;;;;1.2;1.2;;;;;;;8.2;100.0;102300;;;;
2023/02/03 01:26:01;;;;;;;1.2;1.2;;;;;;;8.2;100.0;102300;;;;
2023/02/03 01:27:00;;;;;;;1.2;1.2;;;;;;;8.2;100.0;102300;;;;
2023/02/03 01:28:00;;;;;;;1.2;1.2;;;;;;;8.2;100.0;102300;;;;
2023/02/03 01:29:00;;;;;;;1.2;1.2;;;;;;;8.2;100.0;102290;;;;
2023/02/03 01:30:00;;;;;;;1.2;1.2;;;;;;;8.2;100.0;102290;;;;
2023/02/03 01:31:10;;;;;;;1.2;1.2;;;;;;;8.1;100.0;102290;;;;
2023/02/03 01:32:00;;;;;;;1.2;1.2;;;;;;;8.1;100.0;102290;;;;
2023/02/03 01:33:00;;;;;;;1.2;1.2;;;;;;;8.3;100.0;102290;;;;
2023/02/03 01:34:00;;;;;;;1.2;1.2;;;;;;;8.3;100.0;102290;;;;
2023/02/03 01:35:00;;;;;;;1.2;1.2;;;;;;;8.1;100.0;102280;;;;
2023/02/03 01:36:00;;;;;;;1.2;1.2;;;;;;;8.1;100.0;102280;;;;
2023/02/03 01:37:00;;;;;;;1.2;1.2;;;;;;;8.2;100.0;102290;;;;
2023/02/03 01:38:00;;;;;;;1.2;1.2;;;;;;;8.2;100.0;102290;;;;
2023/02/03 01:39:00;;;;;;;1.2;1.2;;;;;;;8.3;100.0;102300;;;;
2023/02/03 01:40:00;;;;;;;1.2;1.2;;;;;;;8.3;100.0;102300;;;;
2023/02/03 01:41:00;;;;;;;1.2;1.2;;;;;;;8.3;100.0;102300;;;;
2023/02/03 01:42:00;;;;;;;1.2;1.2;;;;;;;8.3;100.0;102300;;;;
2023/02/03 01:43:00;;;;;;;1.3;1.3;;;;;;;8.2;100.0;102300;;;;
2023/02/03 01:44:01;;;;;;;1.3;1.3;;;;;;;8.2;100.0;102300;;;;
2023/02/03 01:45:00;;;;;;;1.3;1.3;;;;;;;8.3;100.0;102290;;;;
2023/02/03 01:46:03;;;;;;;1.3;1.3;;;;;;;8.3;100.0;102290;;;;
2023/02/03 01:47:01;;;;;;;1.3;1.3;;;;;;;8.3;100.0;102290;;;;
2023/02/03 01:48:00;;;;;;;1.3;1.3;;;;;;;8.3;100.0;102290;;;;
2023/02/03 01:49:10;;;;;;;1.3;1.3;;;;;;;8.3;100.0;102290;;;;
2023/02/03 01:50:10;;;;;;;1.3;1.3;;;;;;;8.3;100.0;102290;;;;
2023/02/03 01:51:01;;;;;;;1.3;1.3;;;;;;;8.2;100.0;102290;;;;
2023/02/03 01:52:00;;;;;;;1.3;1.3;;;;;;;8.2;100.0;102290;;;;
2023/02/03 01:53:03;;;;;;;1.3;1.3;;;;;;;8.3;100.0;102280;;;;
2023/02/03 01:54:00;;;;;;;1.3;1.3;;;;;;;8.3;100.0;102280;;;;
2023/02/03 01:55:04;;;;;;;1.3;1.3;;;;;;;8.2;100.0;102280;;;;
2023/02/03 01:56:03;;;;;;;1.3;1.3;;;;;;;8.2;100.0;102280;;;;
2023/02/03 01:57:02;;;;;;;1.3;1.3;;;;;;;8.2;100.0;102280;;;;
2023/02/03 01:58:04;;;;;;;1.3;1.3;;;;;;;8.2;100.0;102280;;;;
2023/02/03 01:59:01;;;;;;;1.3;1.3;;;;;;;8.2;100.0;102270;;;;
2023/02/03 02:00:01;;;;;;;1.3;1.3;;;;;;;8.2;100.0;102270;;;;
2023/02/03 02:01:00;;;;;;;1.3;1.3;;;;;;;8.3;100.0;102260;;;;
2023/02/03 02:02:01;;;;;;;1.3;1.3;;;;;;;8.3;100.0;102260;;;;
2023/02/03 02:03:01;;;;;;;1.2;1.2;;;;;;;8.2;100.0;102250;;;;
2023/02/03 02:04:01;;;;;;;1.2;1.2;;;;;;;8.2;100.0;102250;;;;
2023/02/03 02:05:05;;;;;;;1.2;1.2;;;;;;;8.3;100.0;102240;;;;
2023/02/03 02:06:03;;;;;;;1.2;1.2;;;;;;;8.3;100.0;102240;;;;
2023/02/03 02:07:01;;;;;;;1.2;1.2;;;;;;;8.3;100.0;102230;;;;
2023/02/03 02:08:02;;;;;;;1.2;1.2;;;;;;;8.3;100.0;102230;;;;
2023/02/03 02:09:00;;;;;;;1.2;1.2;;;;;;;8.3;100.0;102230;;;;
2023/02/03 02:10:01;;;;;;;1.2;1.2;;;;;;;8.3;100.0;102230;;;;
2023/02/03 02:11:00;;;;;;;1.2;1.2;;;;;;;8.3;100.0;102230;;;;
2023/02/03 02:12:00;;;;;;;1.2;1.2;;;;;;;8.3;100.0;102230;;;;
2023/02/03 02:13:02;;;;;;;1.2;1.2;;;;;;;8.2;100.0;102230;;;;
2023/02/03 02:14:01;;;;;;;1.2;1.2;;;;;;;8.2;100.0;102230;;;;
2023/02/03 02:15:01;;;;;;;1.2;1.2;;;;;;;8.2;100.0;102240;;;;
2023/02/03 02:16:10;;;;;;;1.2;1.2;;;;;;;8.2;100.0;102240;;;;
2023/02/03 02:17:05;;;;;;;1.2;1.2;;;;;;;8.2;100.0;102250;;;;
2023/02/03 02:18:06;;;;;;;1.2;1.2;;;;;;;8.2;100.0;102250;;;;
2023/02/03 02:19:01;;;;;;;1.2;1.2;;;;;;;8.1;100.0;102250;;;;
2023/02/03 02:20:10;;;;;;;1.2;1.2;;;;;;;8.1;100.0;102250;;;;
2023/02/03 02:21:10;;;;;;;1.2;1.2;;;;;;;8.2;100.0;102250;;;;
2023/02/03 02:22:01;;;;;;;1.2;1.2;;;;;;;8.2;100.0;102250;;;;
2023/02/03 02:23:10;;;;;;;1.3;1.3;;;;;;;8.1;100.0;102250;;;;
2023/02/03 02:24:10;;;;;;;1.3;1.3;;;;;;;8.1;100.0;102250;;;;
2023/02/03 02:25:10;;;;;;;1.3;1.3;;;;;;;8.2;100.0;102250;;;;
2023/02/03 02:26:10;;;;;;;1.3;1.3;;;;;;;8.2;100.0;102250;;;;
2023/02/03 02:27:00;;;;;;;1.3;1.3;;;;;;;8.2;100.0;102240;;;;
2023/02/03 02:28:01;;;;;;;1.3;1.3;;;;;;;8.2;100.0;102240;;;;
2023/02/03 02:29:10;;;;;;;1.3;1.3;;;;;;;8.1;100.0;102250;;;;
2023/02/03 02:30:08;;;;;;;1.3;1.3;;;;;;;8.1;100.0;102250;;;;
2023/02/03 02:31:08;;;;;;;1.3;1.3;;;;;;;8.2;100.0;102250;;;;
2023/02/03 02:32:08;;;;;;;1.3;1.3;;;;;;;8.2;100.0;102250;;;;
2023/02/03 02:33:08;;;;;;;1.3;1.3;;;;;;;8.1;100.0;102250;;;;
2023/02/03 02:34:10;;;;;;;1.3;1.3;;;;;;;8.1;100.0;102250;;;;
2023/02/03 02:35:01;;;;;;;1.3;1.3;;;;;;;8.2;100.0;102250;;;;
2023/02/03 02:36:07;;;;;;;1.3;1.3;;;;;;;8.2;100.0;102250;;;;
2023/02/03 02:37:04;;;;;;;1.3;1.3;;;;;;;8.2;100.0;102250;;;;
2023/02/03 02:38:03;;;;;;;1.3;1.3;;;;;;;8.2;100.0;102250;;;;
2023/02/03 02:39:08;;;;;;;1.3;1.3;;;;;;;8.1;100.0;102250;;;;
2023/02/03 02:40:00;;;;;;;1.3;1.3;;;;;;;8.1;100.0;102250;;;;
2023/02/03 02:41:10;;;;;;;1.3;1.3;;;;;;;8.2;100.0;102250;;;;
2023/02/03 02:42:05;;;;;;;1.3;1.3;;;;;;;8.2;100.0;102250;;;;
2023/02/03 02:43:01;;;;;;;1.1;1.1;;;;;;;8.3;100.0;102250;;;;
2023/02/03 02:44:03;;;;;;;1.1;1.1;;;;;;;8.3;100.0;102250;;;;
2023/02/03 02:45:07;;;;;;;1.1;1.1;;;;;;;8.3;100.0;102230;;;;
2023/02/03 02:46:05;;;;;;;1.1;1.1;;;;;;;8.3;100.0;102230;;;;
2023/02/03 02:47:05;;;;;;;1.1;1.1;;;;;;;8.2;100.0;102240;;;;
2023/02/03 02:48:05;;;;;;;1.1;1.1;;;;;;;8.2;100.0;102240;;;;
2023/02/03 02:49:05;;;;;;;1.1;1.1;;;;;;;8.3;100.0;102240;;;;
2023/02/03 02:50:05;;;;;;;1.1;1.1;;;;;;;8.3;100.0;102240;;;;
2023/02/03 02:51:02;;;;;;;1.1;1.1;;;;;;;8.3;100.0;102230;;;;
2023/02/03 02:52:02;;;;;;;1.1;1.1;;;;;;;8.3;100.0;102230;;;;
2023/02/03 02:53:02;;;;;;;1.1;1.1;;;;;;;8.1;100.0;102240;;;;
2023/02/03 02:54:02;;;;;;;1.1;1.1;;;;;;;8.1;100.0;102240;;;;
2023/02/03 02:55:04;;;;;;;1.1;1.1;;;;;;;8.1;100.0;102240;;;;
2023/02/03 02:56:04;;;;;;;1.1;1.1;;;;;;;8.1;100.0;102240;;;;
2023/02/03 02:57:02;;;;;;;1.1;1.1;;;;;;;8.1;100.0;102240;;;;
2023/02/03 02:58:03;;;;;;;1.1;1.1;;;;;;;8.1;100.0;102240;;;;
2023/02/03 02:59:03;;;;;;;1.1;1.1;;;;;;;8.1;100.0;102240;;;;
2023/02/03 03:00:00;;;;;;;1.1;1.1;;;;;;;8.1;100.0;102240;;;;
2023/02/03 03:01:02;;;;;;;1.1;1.1;;;;;;;8.2;100.0;102240;;;;
2023/02/03 03:02:01;;;;;;;1.1;1.1;;;;;;;8.2;100.0;102240;;;;
2023/02/03 03:03:10;;;;;;;1.1;1.1;;;;;;;8.2;100.0;102240;;;;
2023/02/03 03:04:03;;;;;;;1.1;1.1;;;;;;;8.2;100.0;102240;;;;
2023/02/03 03:05:03;;;;;;;1.1;1.1;;;;;;;8.3;100.0;102240;;;;
2023/02/03 03:06:02;;;;;;;1.1;1.1;;;;;;;8.3;100.0;102240;;;;
2023/02/03 03:07:03;;;;;;;1.1;1.1;;;;;;;8.2;100.0;102250;;;;
2023/02/03 03:08:01;;;;;;;1.1;1.1;;;;;;;8.2;100.0;102250;;;;
2023/02/03 03:09:10;;;;;;;1.1;1.1;;;;;;;8.2;100.0;102240;;;;
2023/02/03 03:10:04;;;;;;;1.1;1.1;;;;;;;8.2;100.0;102240;;;;
2023/02/03 03:11:01;;;;;;;1.1;1.1;;;;;;;8.2;100.0;102260;;;;
2023/02/03 03:12:04;;;;;;;1.1;1.1;;;;;;;8.2;100.0;102260;;;;
2023/02/03 03:13:03;;;;;;;1.1;1.1;;;;;;;8.2;100.0;102250;;;;
2023/02/03 03:14:01;;;;;;;1.1;1.1;;;;;;;8.2;100.0;102250;;;;
2023/02/03 03:15:03;;;;;;;1.1;1.1;;;;;;;8.2;100.0;102240;;;;
2023/02/03 03:16:03;;;;;;;1.1;1.1;;;;;;;8.2;100.0;102240;;;;
2023/02/03 03:17:03;;;;;;;1.1;1.1;;;;;;;8.2;100.0;102230;;;;
2023/02/03 03:18:07;;;;;;;1.1;1.1;;;;;;;8.2;100.0;102230;;;;
2023/02/03 03:19:04;;;;;;;1.1;1.1;;;;;;;8.2;100.0;102210;;;;
2023/02/03 03:20:03;;;;;;;1.1;1.1;;;;;;;8.2;100.0;102210;;;;
2023/02/03 03:21:05;;;;;;;1.1;1.1;;;;;;;8.3;100.0;102200;;;;
2023/02/03 03:22:02;;;;;;;1.1;1.1;;;;;;;8.3;100.0;102200;;;;
2023/02/03 03:23:04;;;;;;;1.0;1.0;;;;;;;8.2;100.0;102200;;;;
2023/02/03 03:24:02;;;;;;;1.0;1.0;;;;;;;8.2;100.0;102200;;;;
2023/02/03 03:25:04;;;;;;;1.0;1.0;;;;;;;8.3;100.0;102200;;;;
2023/02/03 03:26:10;;;;;;;1.0;1.0;;;;;;;8.3;100.0;102200;;;;
2023/02/03 03:27:07;;;;;;;1.0;1.0;;;;;;;8.3;100.0;102200;;;;
2023/02/03 03:28:03;;;;;;;1.0;1.0;;;;;;;8.3;100.0;102200;;;;
2023/02/03 03:29:05;;;;;;;1.0;1.0;;;;;;;8.3;100.0;102200;;;;
2023/02/03 03:30:04;;;;;;;1.0;1.0;;;;;;;8.3;100.0;102200;;;;
2023/02/03 03:31:00;;;;;;;1.0;1.0;;;;;;;8.3;100.0;102200;;;;
2023/02/03 03:32:01;;;;;;;1.0;1.0;;;;;;;8.3;100.0;102200;;;;
2023/02/03 03:33:01;;;;;;;1.0;1.0;;;;;;;8.3;100.0;102190;;;;
2023/02/03 03:34:01;;;;;;;1.0;1.0;;;;;;;8.3;100.0;102190;;;;
2023/02/03 03:35:01;;;;;;;1.0;1.0;;;;;;;8.4;100.0;102190;;;;
2023/02/03 03:36:05;;;;;;;1.0;1.0;;;;;;;8.4;100.0;102190;;;;
2023/02/03 03:37:05;;;;;;;1.0;1.0;;;;;;;8.4;100.0;102190;;;;
2023/02/03 03:38:10;;;;;;;1.0;1.0;;;;;;;8.4;100.0;102190;;;;
2023/02/03 03:39:03;;;;;;;1.0;1.0;;;;;;;8.3;100.0;102190;;;;
2023/02/03 03:40:07;;;;;;;1.0;1.0;;;;;;;8.3;100.0;102190;;;;
2023/02/03 03:41:02;;;;;;;1.0;1.0;;;;;;;8.3;100.0;102200;;;;
2023/02/03 03:42:06;;;;;;;1.0;1.0;;;;;;;8.3;100.0;102200;;;;
2023/02/03 03:43:06;;;;;;;1.2;1.2;;;;;;;8.3;100.0;102200;;;;
2023/02/03 03:44:02;;;;;;;1.2;1.2;;;;;;;8.3;100.0;102200;;;;
2023/02/03 03:45:10;;;;;;;1.2;1.2;;;;;;;8.4;100.0;102210;;;;
2023/02/03 03:46:05;;;;;;;1.2;1.2;;;;;;;8.4;100.0;102210;;;;
2023/02/03 03:47:06;;;;;;;1.2;1.2;;;;;;;8.4;100.0;102220;;;;
2023/02/03 03:48:00;;;;;;;1.2;1.2;;;;;;;8.4;100.0;102220;;;;
2023/02/03 03:49:02;;;;;;;1.2;1.2;;;;;;;8.4;100.0;102220;;;;
2023/02/03 03:50:02;;;;;;;1.2;1.2;;;;;;;8.4;100.0;102220;;;;
2023/02/03 03:51:05;;;;;;;1.2;1.2;;;;;;;8.4;100.0;102230;;;;
2023/02/03 03:52:03;;;;;;;1.2;1.2;;;;;;;8.4;100.0;102230;;;;
2023/02/03 03:53:02;;;;;;;1.2;1.2;;;;;;;8.4;100.0;102230;;;;
2023/02/03 03:54:02;;;;;;;1.2;1.2;;;;;;;8.4;100.0;102230;;;;
2023/02/03 03:55:02;;;;;;;1.2;1.2;;;;;;;8.4;100.0;102230;;;;
2023/02/03 03:56:02;;;;;;;1.2;1.2;;;;;;;8.4;100.0;102230;;;;
2023/02/03 03:57:06;;;;;;;1.2;1.2;;;;;;;8.4;100.0;102230;;;;
2023/02/03 03:58:04;;;;;;;1.2;1.2;;;;;;;8.4;100.0;102230;;;;
2023/02/03 03:59:02;;;;;;;1.2;1.2;;;;;;;8.4;100.0;102240;;;;
2023/02/03 04:00:02;;;;;;;1.2;1.2;;;;;;;8.4;100.0;102240;;;;
2023/02/03 04:01:02;;;;;;;1.2;1.2;;;;;;;8.4;100.0;102230;;;;
2023/02/03 04:02:03;;;;;;;1.2;1.2;;;;;;;8.4;100.0;102230;;;;
2023/02/03 04:03:04;;;;;;;1.2;1.2;;;;;;;8.4;100.0;102230;;;;
2023/02/03 04:04:04;;;;;;;1.2;1.2;;;;;;;8.4;100.0;102230;;;;
2023/02/03 04:05:02;;;;;;;1.2;1.2;;;;;;;8.5;100.0;102230;;;;
2023/02/03 04:06:01;;;;;;;1.2;1.2;;;;;;;8.5;100.0;102230;;;;
2023/02/03 04:07:00;;;;;;;1.2;1.2;;;;;;;8.4;100.0;102230;;;;
2023/02/03 04:08:02;;;;;;;1.2;1.2;;;;;;;8.4;100.0;102230;;;;
2023/02/03 04:09:01;;;;;;;1.2;1.2;;;;;;;8.4;100.0;102240;;;;
2023/02/03 04:10:01;;;;;;;1.2;1.2;;;;;;;8.4;100.0;102240;;;;
2023/02/03 04:11:00;;;;;;;1.2;1.2;;;;;;;8.4;100.0;102230;;;;
2023/02/03 04:12:00;;;;;;;1.2;1.2;;;;;;;8.4;100.0;102230;;;;
2023/02/03 04:13:00;;;;;;;1.2;1.2;;;;;;;8.4;100.0;102240;;;;
2023/02/03 04:14:00;;;;;;;1.2;1.2;;;;;;;8.4;100.0;102240;;;;
2023/02/03 04:15:00;;;;;;;1.2;1.2;;;;;;;8.4;100.0;102240;;;;
2023/02/03 04:16:00;;;;;;;1.2;1.2;;;;;;;8.4;100.0;102240;;;;
2023/02/03 04:17:00;;;;;;;1.2;1.2;;;;;;;8.4;100.0;102250;;;;
2023/02/03 04:18:00;;;;;;;1.2;1.2;;;;;;;8.4;100.0;102250;;;;
2023/02/03 04:19:00;;;;;;;1.2;1.2;;;;;;;8.4;100.0;102250;;;;
2023/02/03 04:20:01;;;;;;;1.2;1.2;;;;;;;8.4;100.0;102250;;;;
2023/02/03 04:21:00;;;;;;;1.2;1.2;;;;;;;8.4;100.0;102250;;;;
2023/02/03 04:22:00;;;;;;;1.2;1.2;;;;;;;8.4;100.0;102250;;;;
2023/02/03 04:23:00;;;;;;;1.0;1.0;;;;;;;8.3;100.0;102250;;;;
2023/02/03 04:24:00;;;;;;;1.0;1.0;;;;;;;8.3;100.0;102250;;;;
2023/02/03 04:25:00;;;;;;;1.0;1.0;;;;;;;8.4;100.0;102250;;;;
2023/02/03 04:26:00;;;;;;;1.0;1.0;;;;;;;8.4;100.0;102250;;;;
2023/02/03 04:27:00;;;;;;;1.0;1.0;;;;;;;8.4;100.0;102240;;;;
2023/02/03 04:28:00;;;;;;;1.0;1.0;;;;;;;8.4;100.0;102240;;;;
2023/02/03 04:29:01;;;;;;;1.0;1.0;;;;;;;8.4;100.0;102250;;;;
2023/02/03 04:30:00;;;;;;;1.0;1.0;;;;;;;8.4;100.0;102250;;;;
2023/02/03 04:31:00;;;;;;;1.0;1.0;;;;;;;8.4;100.0;102250;;;;
2023/02/03 04:32:00;;;;;;;1.0;1.0;;;;;;;8.4;100.0;102250;;;;
2023/02/03 04:33:00;;;;;;;1.0;1.0;;;;;;;8.4;100.0;102270;;;;
2023/02/03 04:34:00;;;;;;;1.0;1.0;;;;;;;8.4;100.0;102270;;;;
2023/02/03 04:35:01;;;;;;;1.0;1.0;;;;;;;8.4;100.0;102260;;;;
2023/02/03 04:36:00;;;;;;;1.0;1.0;;;;;;;8.4;100.0;102260;;;;
2023/02/03 04:37:00;;;;;;;1.0;1.0;;;;;;;8.4;100.0;102250;;;;
2023/02/03 04:38:00;;;;;;;1.0;1.0;;;;;;;8.4;100.0;102250;;;;
2023/02/03 04:39:00;;;;;;;1.0;1.0;;;;;;;8.3;100.0;102250;;;;
2023/02/03 04:40:00;;;;;;;1.0;1.0;;;;;;;8.3;100.0;102250;;;;
2023/02/03 04:41:00;;;;;;;1.0;1.0;;;;;;;8.4;100.0;102250;;;;
2023/02/03 04:42:00;;;;;;;1.0;1.0;;;;;;;8.4;100.0;102250;;;;
2023/02/03 04:43:05;;;;;;;1.2;1.2;;;;;;;8.4;100.0;102240;;;;
2023/02/03 04:44:00;;;;;;;1.2;1.2;;;;;;;8.4;100.0;102240;;;;
2023/02/03 04:45:00;;;;;;;1.2;1.2;;;;;;;8.4;100.0;102240;;;;
2023/02/03 04:46:00;;;;;;;1.2;1.2;;;;;;;8.4;100.0;102240;;;;
2023/02/03 04:47:00;;;;;;;1.2;1.2;;;;;;;8.4;100.0;102240;;;;
2023/02/03 04:48:00;;;;;;;1.2;1.2;;;;;;;8.4;100.0;102240;;;;
2023/02/03 04:49:00;;;;;;;1.2;1.2;;;;;;;8.4;100.0;102230;;;;
2023/02/03 04:50:01;;;;;;;1.2;1.2;;;;;;;8.4;100.0;102230;;;;
2023/02/03 04:51:02;;;;;;;1.2;1.2;;;;;;;8.4;100.0;102220;;;;
2023/02/03 04:52:00;;;;;;;1.2;1.2;;;;;;;8.4;100.0;102220;;;;
2023/02/03 04:53:00;;;;;;;1.2;1.2;;;;;;;8.4;100.0;102230;;;;
2023/02/03 04:54:00;;;;;;;1.2;1.2;;;;;;;8.4;100.0;102230;;;;
2023/02/03 04:55:00;;;;;;;1.2;1.2;;;;;;;8.4;100.0;102220;;;;
2023/02/03 04:56:00;;;;;;;1.2;1.2;;;;;;;8.4;100.0;102220;;;;
2023/02/03 04:57:00;;;;;;;1.2;1.2;;;;;;;8.4;100.0;102220;;;;
2023/02/03 04:58:00;;;;;;;1.2;1.2;;;;;;;8.4;100.0;102220;;;;
2023/02/03 04:59:00;;;;;;;1.2;1.2;;;;;;;8.5;100.0;102210;;;;
2023/02/03 05:00:00;;;;;;;1.2;1.2;;;;;;;8.5;100.0;102210;;;;
2023/02/03 05:01:05;;;;;;;1.2;1.2;;;;;;;8.5;100.0;102210;;;;
2023/02/03 05:02:02;;;;;;;1.2;1.2;;;;;;;8.5;100.0;102210;;;;
2023/02/03 05:03:00;;;;;;;1.0;1.0;;;;;;;8.5;100.0;102190;;;;
2023/02/03 05:04:00;;;;;;;1.0;1.0;;;;;;;8.5;100.0;102190;;;;
2023/02/03 05:05:00;;;;;;;1.0;1.0;;;;;;;8.5;100.0;102210;;;;
2023/02/03 05:06:02;;;;;;;1.0;1.0;;;;;;;8.5;100.0;102210;;;;
2023/02/03 05:07:00;;;;;;;1.0;1.0;;;;;;;8.5;100.0;102200;;;;
2023/02/03 05:08:00;;;;;;;1.0;1.0;;;;;;;8.5;100.0;102200;;;;
2023/02/03 05:09:00;;;;;;;1.0;1.0;;;;;;;8.5;100.0;102210;;;;
2023/02/03 05:10:00;;;;;;;1.0;1.0;;;;;;;8.5;100.0;102210;;;;
2023/02/03 05:11:02;;;;;;;1.0;1.0;;;;;;;8.3;100.0;102220;;;;
2023/02/03 05:12:00;;;;;;;1.0;1.0;;;;;;;8.3;100.0;102220;;;;
2023/02/03 05:13:00;;;;;;;1.0;1.0;;;;;;;8.4;100.0;102220;;;;
2023/02/03 05:14:00;;;;;;;1.0;1.0;;;;;;;8.4;100.0;102220;;;;
2023/02/03 05:15:00;;;;;;;1.0;1.0;;;;;;;8.4;100.0;102230;;;;
2023/02/03 05:16:00;;;;;;;1.0;1.0;;;;;;;8.4;100.0;102230;;;;
2023/02/03 05:17:00;;;;;;;1.0;1.0;;;;;;;8.5;100.0;102210;;;;
2023/02/03 05:18:00;;;;;;;1.0;1.0;;;;;;;8.5;100.0;102210;;;;
2023/02/03 05:19:00;;;;;;;1.0;1.0;;;;;;;8.6;100.0;102220;;;;
2023/02/03 05:20:00;;;;;;;1.0;1.0;;;;;;;8.6;100.0;102220;;;;
2023/02/03 05:21:00;;;;;;;1.0;1.0;;;;;;;8.4;100.0;102220;;;;
2023/02/03 05:22:00;;;;;;;1.0;1.0;;;;;;;8.4;100.0;102220;;;;
2023/02/03 05:23:00;;;;;;;1.0;1.0;;;;;;;8.5;100.0;102220;;;;
2023/02/03 05:24:02;;;;;;;1.0;1.0;;;;;;;8.5;100.0;102220;;;;
2023/02/03 05:25:00;;;;;;;1.0;1.0;;;;;;;8.4;100.0;102210;;;;
2023/02/03 05:26:00;;;;;;;1.0;1.0;;;;;;;8.4;100.0;102210;;;;
2023/02/03 05:27:00;;;;;;;1.0;1.0;;;;;;;8.4;100.0;102210;;;;
2023/02/03 05:28:00;;;;;;;1.0;1.0;;;;;;;8.4;100.0;102210;;;;
2023/02/03 05:29:01;;;;;;;1.0;1.0;;;;;;;8.5;100.0;102220;;;;
2023/02/03 05:30:00;;;;;;;1.0;1.0;;;;;;;8.5;100.0;102220;;;;
2023/02/03 05:31:01;;;;;;;1.0;1.0;;;;;;;8.6;100.0;102240;;;;
2023/02/03 05:32:00;;;;;;;1.0;1.0;;;;;;;8.6;100.0;102240;;;;
2023/02/03 05:33:00;;;;;;;1.0;1.0;;;;;;;8.4;100.0;102220;;;;
2023/02/03 05:34:00;;;;;;;1.0;1.0;;;;;;;8.4;100.0;102220;;;;
2023/02/03 05:35:00;;;;;;;1.0;1.0;;;;;;;8.4;100.0;102220;;;;
2023/02/03 05:36:00;;;;;;;1.0;1.0;;;;;;;8.4;100.0;102220;;;;
2023/02/03 05:37:00;;;;;;;1.0;1.0;;;;;;;8.4;100.0;102220;;;;
2023/02/03 05:38:01;;;;;;;1.0;1.0;;;;;;;8.4;100.0;102220;;;;
2023/02/03 05:39:00;;;;;;;1.0;1.0;;;;;;;8.4;100.0;102230;;;;
2023/02/03 05:41:51;;;;;;;1.0;1.0;;;;;;;8.4;100.0;102230;;;;
2023/02/03 05:42:02;;;;;;;1.0;1.0;;;;;;;8.4;100.0;102230;;;;
2023/02/03 05:43:00;;;;;;;1.2;1.2;;;;;;;8.5;100.0;102240;;;;
2023/02/03 05:44:00;;;;;;;1.2;1.2;;;;;;;8.5;100.0;102240;;;;
2023/02/03 05:45:00;;;;;;;1.2;1.2;;;;;;;8.4;100.0;102240;;;;
2023/02/03 05:46:02;;;;;;;1.2;1.2;;;;;;;8.4;100.0;102240;;;;
2023/02/03 05:47:00;;;;;;;1.2;1.2;;;;;;;8.4;100.0;102230;;;;
2023/02/03 05:48:01;;;;;;;1.2;1.2;;;;;;;8.4;100.0;102230;;;;
2023/02/03 05:49:00;;;;;;;1.2;1.2;;;;;;;8.4;100.0;102230;;;;
2023/02/03 05:50:00;;;;;;;1.2;1.2;;;;;;;8.4;100.0;102230;;;;
2023/02/03 05:51:00;;;;;;;1.2;1.2;;;;;;;8.5;100.0;102240;;;;
2023/02/03 05:52:00;;;;;;;1.2;1.2;;;;;;;8.5;100.0;102240;;;;
2023/02/03 05:53:01;;;;;;;1.2;1.2;;;;;;;8.5;100.0;102230;;;;
2023/02/03 05:54:00;;;;;;;1.2;1.2;;;;;;;8.5;100.0;102230;;;;
2023/02/03 05:55:00;;;;;;;1.2;1.2;;;;;;;8.5;100.0;102240;;;;
2023/02/03 05:56:00;;;;;;;1.2;1.2;;;;;;;8.5;100.0;102240;;;;
2023/02/03 05:57:00;;;;;;;1.2;1.2;;;;;;;8.6;100.0;102240;;;;
2023/02/03 05:58:00;;;;;;;1.2;1.2;;;;;;;8.6;100.0;102240;;;;
2023/02/03 05:59:00;;;;;;;1.2;1.2;;;;;;;8.6;100.0;102250;;;;
2023/02/03 06:00:00;;;;;;;1.2;1.2;;;;;;;8.6;100.0;102250;;;;
2023/02/03 06:01:00;;;;;;;1.2;1.2;;;;;;;8.6;100.0;102240;;;;
2023/02/03 06:02:00;;;;;;;1.2;1.2;;;;;;;8.6;100.0;102240;;;;
2023/02/03 06:03:01;;;;;;;1.0;1.0;;;;;;;8.6;100.0;102240;;;;
2023/02/03 06:04:01;;;;;;;1.0;1.0;;;;;;;8.6;100.0;102240;;;;
2023/02/03 06:05:00;;;;;;;1.0;1.0;;;;;;;8.4;100.0;102230;;;;
2023/02/03 06:06:00;;;;;;;1.0;1.0;;;;;;;8.4;100.0;102230;;;;
2023/02/03 06:07:00;;;;;;;1.0;1.0;;;;;;;8.4;100.0;102230;;;;
2023/02/03 06:08:00;;;;;;;1.0;1.0;;;;;;;8.4;100.0;102230;;;;
2023/02/03 06:09:01;;;;;;;1.0;1.0;;;;;;;8.5;100.0;102230;;;;
2023/02/03 06:10:00;;;;;;;1.0;1.0;;;;;;;8.5;100.0;102230;;;;
2023/02/03 06:11:00;;;;;;;1.0;1.0;;;;;;;8.4;100.0;102230;;;;
2023/02/03 06:12:00;;;;;;;1.0;1.0;;;;;;;8.4;100.0;102230;;;;
2023/02/03 06:13:09;;;;;;;1.0;1.0;;;;;;;8.5;100.0;102230;;;;
2023/02/03 06:14:01;;;;;;;1.0;1.0;;;;;;;8.5;100.0;102230;;;;
2023/02/03 06:15:00;;;;;;;1.0;1.0;;;;;;;8.4;100.0;102230;;;;
2023/02/03 06:16:00;;;;;;;1.0;1.0;;;;;;;8.4;100.0;102230;;;;
2023/02/03 06:17:00;;;;;;;1.0;1.0;;;;;;;8.4;100.0;102230;;;;
2023/02/03 06:18:00;;;;;;;1.0;1.0;;;;;;;8.4;100.0;102230;;;;
2023/02/03 06:19:00;;;;;;;1.0;1.0;;;;;;;8.5;100.0;102230;;;;
2023/02/03 06:20:03;;;;;;;1.0;1.0;;;;;;;8.5;100.0;102230;;;;
2023/02/03 06:21:00;;;;;;;1.0;1.0;;;;;;;8.5;100.0;102240;;;;
2023/02/03 06:22:00;;;;;;;1.1;1.1;;;;;;;8.5;100.0;102240;;;;
2023/02/03 06:23:00;;;;;;;1.1;1.1;;;;;;;8.6;100.0;102230;;;;
2023/02/03 06:24:00;;;;;;;1.1;1.1;;;;;;;8.6;100.0;102230;;;;
2023/02/03 06:25:00;;;;;;;1.1;1.1;;;;;;;8.6;100.0;102220;;;;
2023/02/03 06:26:00;;;;;;;1.1;1.1;;;;;;;8.6;100.0;102220;;;;
2023/02/03 06:27:00;;;;;;;1.1;1.1;;;;;;;8.6;100.0;102220;;;;
2023/02/03 06:28:00;;;;;;;1.1;1.1;;;;;;;8.6;100.0;102220;;;;
2023/02/03 06:29:00;;;;;;;1.1;1.1;;;;;;;8.5;100.0;102210;;;;
2023/02/03 06:30:00;;;;;;;1.1;1.1;;;;;;;8.5;100.0;102210;;;;